createdAt,value
2018-08-23T00:00:41.664Z,1009.98
2018-08-23T00:01:41.589Z,1009.97
2018-08-23T00:02:41.514Z,1009.97
2018-08-23T00:03:41.522Z,1009.94
2018-08-23T00:04:41.353Z,1009.89
2018-08-23T00:05:41.279Z,1009.96
2018-08-23T00:06:41.191Z,1009.88
2018-08-23T00:07:41.115Z,1009.90
2018-08-23T00:08:41.049Z,1009.91
2018-08-23T00:09:40.953Z,1009.90
2018-08-23T00:10:40.878Z,1009.90
2018-08-23T00:11:40.803Z,1009.90
2018-08-23T00:12:40.715Z,1009.94
2018-08-23T00:13:40.664Z,1009.91
2018-08-23T00:14:40.569Z,1009.87
2018-08-23T00:15:40.480Z,1009.88
2018-08-23T00:16:40.418Z,1009.85
2018-08-23T00:17:40.329Z,1009.80
2018-08-23T00:18:40.241Z,1009.82
2018-08-23T00:19:40.166Z,1009.81
2018-08-23T00:20:40.092Z,1009.81
2018-08-23T00:21:40.004Z,1009.83
2018-08-23T00:22:39.931Z,1009.82
2018-08-23T00:23:39.855Z,1009.83
2018-08-23T00:24:39.766Z,1009.80
2018-08-23T00:25:39.693Z,1009.78
2018-08-23T00:26:39.617Z,1009.77
2018-08-23T00:27:39.531Z,1009.80
2018-08-23T00:28:39.455Z,1009.77
2018-08-23T00:29:39.380Z,1009.74
2018-08-23T00:30:39.293Z,1009.72
2018-08-23T00:31:39.217Z,1009.72
2018-08-23T00:32:39.132Z,1009.72
2018-08-23T00:33:39.056Z,1009.71
2018-08-23T00:34:38.981Z,1009.76
2018-08-23T00:35:38.893Z,1009.75
2018-08-23T00:36:38.832Z,1009.74
2018-08-23T00:37:38.743Z,1009.71
2018-08-23T00:38:38.656Z,1009.69
2018-08-23T00:39:38.584Z,1009.70
2018-08-23T00:40:38.507Z,1009.71
2018-08-23T00:41:38.431Z,1009.68
2018-08-23T00:42:38.344Z,1009.71
2018-08-23T00:43:38.268Z,1009.68
2018-08-23T00:44:38.194Z,1009.67
2018-08-23T00:45:38.107Z,1009.67
2018-08-23T00:46:38.037Z,1009.67
2018-08-23T00:47:37.944Z,1009.67
2018-08-23T00:48:37.869Z,1009.67
2018-08-23T00:49:37.795Z,1009.65
2018-08-23T00:50:37.708Z,1009.67
2018-08-23T00:51:37.633Z,1009.67
2018-08-23T00:52:37.546Z,1009.67
2018-08-23T00:53:37.470Z,1009.67
2018-08-23T00:54:37.395Z,1009.69
2018-08-23T00:55:37.318Z,1009.69
2018-08-23T00:56:37.233Z,1009.70
2018-08-23T00:57:37.160Z,1009.66
2018-08-23T00:58:37.086Z,1009.67
2018-08-23T00:59:36.996Z,1009.65
2018-08-23T01:00:36.921Z,1009.65
2018-08-23T01:01:36.835Z,1009.63
2018-08-23T01:02:36.759Z,1009.65
2018-08-23T01:03:36.684Z,1009.64
2018-08-23T01:04:36.596Z,1009.64
2018-08-23T01:05:36.523Z,1009.62
2018-08-23T01:06:36.446Z,1009.61
2018-08-23T01:07:36.360Z,1009.58
2018-08-23T01:08:36.285Z,1009.58
2018-08-23T01:09:36.198Z,1009.61
2018-08-23T01:10:36.122Z,1009.58
2018-08-23T01:11:36.048Z,1009.56
2018-08-23T01:12:35.960Z,1009.61
2018-08-23T01:13:35.885Z,1009.54
2018-08-23T01:14:35.811Z,1009.55
2018-08-23T01:15:35.722Z,1009.54
2018-08-23T01:16:35.648Z,1009.53
2018-08-23T01:17:35.576Z,1009.52
2018-08-23T01:18:35.486Z,1009.50
2018-08-23T01:19:35.412Z,1009.48
2018-08-23T01:20:35.326Z,1009.49
2018-08-23T01:21:35.248Z,1009.49
2018-08-23T01:22:35.173Z,1009.45
2018-08-23T01:23:35.086Z,1009.45
2018-08-23T01:24:35.015Z,1009.44
2018-08-23T01:25:34.941Z,1009.44
2018-08-23T01:26:34.849Z,1009.41
2018-08-23T01:27:34.773Z,1009.40
2018-08-23T01:28:34.712Z,1009.45
2018-08-23T01:29:34.613Z,1009.42
2018-08-23T01:30:34.538Z,1009.42
2018-08-23T01:31:34.449Z,1009.41
2018-08-23T01:32:34.377Z,1009.42
2018-08-23T01:33:34.300Z,1009.41
2018-08-23T01:34:34.213Z,1009.41
2018-08-23T01:35:34.138Z,1009.39
2018-08-23T01:36:34.052Z,1009.39
2018-08-23T01:37:33.974Z,1009.37
2018-08-23T01:38:33.915Z,1009.31
2018-08-23T01:39:33.815Z,1009.33
2018-08-23T01:40:33.739Z,1009.31
2018-08-23T01:41:33.664Z,1009.30
2018-08-23T01:42:33.577Z,1009.29
2018-08-23T01:43:33.500Z,1009.26
2018-08-23T01:44:33.426Z,1009.25
2018-08-23T01:45:33.339Z,1009.23
2018-08-23T01:46:33.264Z,1009.24
2018-08-23T01:47:33.176Z,1009.22
2018-08-23T01:48:33.101Z,1009.24
2018-08-23T01:49:33.026Z,1009.23
2018-08-23T01:50:32.940Z,1009.25
2018-08-23T01:51:32.864Z,1009.25
2018-08-23T01:52:32.778Z,1009.23
2018-08-23T01:53:32.701Z,1009.25
2018-08-23T01:54:32.628Z,1009.24
2018-08-23T01:55:32.542Z,1009.22
2018-08-23T01:56:32.465Z,1009.20
2018-08-23T01:57:32.391Z,1009.21
2018-08-23T01:58:32.304Z,1009.20
2018-08-23T01:59:32.227Z,1009.18
2018-08-23T02:00:32.152Z,1009.19
2018-08-23T02:01:32.065Z,1009.19
2018-08-23T02:02:31.990Z,1009.15
2018-08-23T02:03:31.902Z,1009.13
2018-08-23T02:04:31.828Z,1009.13
2018-08-23T02:05:31.757Z,1009.11
2018-08-23T02:06:31.666Z,1009.07
2018-08-23T02:07:31.591Z,1009.08
2018-08-23T02:08:31.504Z,1009.09
2018-08-23T02:09:31.429Z,1009.11
2018-08-23T02:10:31.359Z,1009.12
2018-08-23T02:11:31.266Z,1009.14
2018-08-23T02:12:31.191Z,1009.16
2018-08-23T02:13:31.105Z,1009.14
2018-08-23T02:14:31.028Z,1009.11
2018-08-23T02:15:30.954Z,1009.10
2018-08-23T02:16:30.869Z,1009.08
2018-08-23T02:17:30.794Z,1009.09
2018-08-23T02:18:30.706Z,1009.07
2018-08-23T02:19:30.629Z,1009.04
2018-08-23T02:20:30.555Z,1009.05
2018-08-23T02:21:30.468Z,1009.07
2018-08-23T02:22:30.393Z,1009.07
2018-08-23T02:23:30.307Z,1009.02
2018-08-23T02:24:30.230Z,1009.01
2018-08-23T02:25:30.154Z,1009.03
2018-08-23T02:26:30.079Z,1008.99
2018-08-23T02:27:29.993Z,1009.01
2018-08-23T02:28:29.919Z,1009.01
2018-08-23T02:29:29.847Z,1009.01
2018-08-23T02:30:29.756Z,1008.98
2018-08-23T02:31:29.672Z,1008.98
2018-08-23T02:32:29.594Z,1008.98
2018-08-23T02:33:29.519Z,1008.96
2018-08-23T02:34:29.431Z,1008.95
2018-08-23T02:35:29.356Z,1008.92
2018-08-23T02:36:29.273Z,1008.92
2018-08-23T02:37:29.197Z,1008.94
2018-08-23T02:38:29.120Z,1008.91
2018-08-23T02:39:29.034Z,1008.90
2018-08-23T02:40:28.957Z,1008.92
2018-08-23T02:41:28.870Z,1008.90
2018-08-23T02:42:28.797Z,1008.90
2018-08-23T02:43:28.720Z,1008.89
2018-08-23T02:44:28.702Z,1008.89
2018-08-23T02:45:28.559Z,1008.88
2018-08-23T02:46:28.484Z,1008.87
2018-08-23T02:47:28.396Z,1008.90
2018-08-23T02:48:28.321Z,1008.91
2018-08-23T02:49:28.233Z,1008.91
2018-08-23T02:50:28.171Z,1008.89
2018-08-23T02:51:28.074Z,1008.89
2018-08-23T02:52:27.997Z,1008.85
2018-08-23T02:53:27.925Z,1008.88
2018-08-23T02:54:27.834Z,1008.87
2018-08-23T02:55:27.758Z,1008.87
2018-08-23T02:56:27.672Z,1008.85
2018-08-23T02:57:27.599Z,1008.85
2018-08-23T02:58:27.526Z,1008.83
2018-08-23T02:59:27.434Z,1008.87
2018-08-23T03:00:27.405Z,1008.86
2018-08-23T03:01:27.284Z,1008.84
2018-08-23T03:02:27.197Z,1008.85
2018-08-23T03:03:27.124Z,1008.84
2018-08-23T03:04:27.034Z,1008.81
2018-08-23T03:05:26.960Z,1008.86
2018-08-23T03:06:26.886Z,1008.85
2018-08-23T03:07:26.798Z,1008.86
2018-08-23T03:08:26.723Z,1008.80
2018-08-23T03:09:26.642Z,1008.83
2018-08-23T03:10:26.561Z,1008.83
2018-08-23T03:11:26.474Z,1008.83
2018-08-23T03:12:26.399Z,1008.84
2018-08-23T03:13:26.323Z,1008.85
2018-08-23T03:14:26.235Z,1008.88
2018-08-23T03:15:26.161Z,1008.88
2018-08-23T03:16:26.085Z,1008.85
2018-08-23T03:17:26.007Z,1008.84
2018-08-23T03:18:25.927Z,1008.85
2018-08-23T03:19:25.836Z,1008.88
2018-08-23T03:20:25.761Z,1008.84
2018-08-23T03:21:25.686Z,1008.84
2018-08-23T03:22:25.600Z,1008.85
2018-08-23T03:23:25.525Z,1008.80
2018-08-23T03:24:25.437Z,1008.82
2018-08-23T03:25:25.362Z,1008.81
2018-08-23T03:26:25.287Z,1008.82
2018-08-23T03:27:25.201Z,1008.78
2018-08-23T03:28:25.126Z,1008.74
2018-08-23T03:29:25.051Z,1008.73
2018-08-23T03:30:24.963Z,1008.78
2018-08-23T03:31:24.876Z,1008.73
2018-08-23T03:32:24.803Z,1008.76
2018-08-23T03:33:24.727Z,1008.73
2018-08-23T03:34:24.639Z,1008.75
2018-08-23T03:35:24.563Z,1008.73
2018-08-23T03:36:24.477Z,1008.73
2018-08-23T03:37:24.402Z,1008.74
2018-08-23T03:38:24.327Z,1008.73
2018-08-23T03:39:24.238Z,1008.72
2018-08-23T03:40:24.165Z,1008.73
2018-08-23T03:41:24.077Z,1008.75
2018-08-23T03:42:24.002Z,1008.73
2018-08-23T03:43:23.927Z,1008.77
2018-08-23T03:44:23.839Z,1008.73
2018-08-23T03:45:23.763Z,1008.74
2018-08-23T03:46:23.682Z,1008.73
2018-08-23T03:47:23.602Z,1008.73
2018-08-23T03:48:23.528Z,1008.71
2018-08-23T03:49:23.441Z,1008.72
2018-08-23T03:50:23.365Z,1008.73
2018-08-23T03:51:23.278Z,1008.72
2018-08-23T03:52:23.268Z,1008.71
2018-08-23T03:53:23.129Z,1008.74
2018-08-23T03:54:23.055Z,1008.75
2018-08-23T03:55:22.979Z,1008.79
2018-08-23T03:56:22.879Z,1008.75
2018-08-23T03:57:22.806Z,1008.74
2018-08-23T03:58:22.729Z,1008.78
2018-08-23T03:59:22.643Z,1008.77
2018-08-23T04:00:22.566Z,1008.78
2018-08-23T04:01:22.480Z,1008.80
2018-08-23T04:02:22.404Z,1008.80
2018-08-23T04:03:22.329Z,1008.78
2018-08-23T04:04:22.255Z,1008.74
2018-08-23T04:05:22.167Z,1008.76
2018-08-23T04:06:22.079Z,1008.77
2018-08-23T04:07:22.008Z,1008.79
2018-08-23T04:08:21.929Z,1008.74
2018-08-23T04:09:21.855Z,1008.77
2018-08-23T04:10:21.766Z,1008.79
2018-08-23T04:11:21.680Z,1008.77
2018-08-23T04:12:21.615Z,1008.76
2018-08-23T04:13:21.533Z,1008.77
2018-08-23T04:14:21.444Z,1008.72
2018-08-23T04:15:21.428Z,1008.71
2018-08-23T04:16:21.281Z,1008.74
2018-08-23T04:17:21.206Z,1008.74
2018-08-23T04:18:21.138Z,1008.75
2018-08-23T04:19:21.042Z,1008.77
2018-08-23T04:20:20.972Z,1008.77
2018-08-23T04:21:20.881Z,1008.70
2018-08-23T04:22:20.807Z,1008.73
2018-08-23T04:23:20.719Z,1008.73
2018-08-23T04:24:20.645Z,1008.75
2018-08-23T04:25:20.568Z,1008.74
2018-08-23T04:26:20.481Z,1008.76
2018-08-23T04:27:20.406Z,1008.73
2018-08-23T04:28:20.324Z,1008.74
2018-08-23T04:29:20.245Z,1008.69
2018-08-23T04:30:20.169Z,1008.70
2018-08-23T04:31:20.088Z,1008.70
2018-08-23T04:32:20.007Z,1008.72
2018-08-23T04:33:19.932Z,1008.72
2018-08-23T04:34:19.844Z,1008.72
2018-08-23T04:35:19.769Z,1008.70
2018-08-23T04:36:19.684Z,1008.69
2018-08-23T04:37:19.608Z,1008.71
2018-08-23T04:38:19.537Z,1008.73
2018-08-23T04:39:19.444Z,1008.72
2018-08-23T04:40:19.370Z,1008.73
2018-08-23T04:41:19.284Z,1008.73
2018-08-23T04:42:19.208Z,1008.70
2018-08-23T04:43:19.166Z,1008.76
2018-08-23T04:44:19.045Z,1008.73
2018-08-23T04:45:18.971Z,1008.73
2018-08-23T04:46:18.884Z,1008.73
2018-08-23T04:47:18.809Z,1008.70
2018-08-23T04:48:18.734Z,1008.72
2018-08-23T04:49:18.646Z,1008.70
2018-08-23T04:50:18.572Z,1008.68
2018-08-23T04:51:18.485Z,1008.67
2018-08-23T04:52:18.414Z,1008.66
2018-08-23T04:53:18.335Z,1008.67
2018-08-23T04:54:18.246Z,1008.66
2018-08-23T04:55:18.172Z,1008.64
2018-08-23T04:56:18.097Z,1008.63
2018-08-23T04:57:18.010Z,1008.63
2018-08-23T04:58:17.937Z,1008.63
2018-08-23T04:59:17.856Z,1008.65
2018-08-23T05:00:17.772Z,1008.62
2018-08-23T05:01:17.697Z,1008.65
2018-08-23T05:02:17.612Z,1008.63
2018-08-23T05:03:17.539Z,1008.62
2018-08-23T05:04:17.450Z,1008.59
2018-08-23T05:05:17.373Z,1008.56
2018-08-23T05:06:17.298Z,1008.57
2018-08-23T05:07:17.212Z,1008.53
2018-08-23T05:08:17.137Z,1008.53
2018-08-23T05:09:17.062Z,1008.52
2018-08-23T05:10:16.973Z,1008.53
2018-08-23T05:11:16.898Z,1008.54
2018-08-23T05:12:16.837Z,1008.50
2018-08-23T05:13:16.738Z,1008.54
2018-08-23T05:14:16.663Z,1008.53
2018-08-23T05:15:16.574Z,1008.55
2018-08-23T05:16:16.498Z,1008.56
2018-08-23T05:17:16.424Z,1008.57
2018-08-23T05:18:16.337Z,1008.57
2018-08-23T05:19:16.263Z,1008.58
2018-08-23T05:20:16.187Z,1008.52
2018-08-23T05:21:16.103Z,1008.52
2018-08-23T05:22:58.153Z,1008.52
2018-08-23T05:23:58.064Z,1008.52
2018-08-23T05:24:57.989Z,1008.53
2018-08-23T05:25:57.901Z,1008.54
2018-08-23T05:26:57.826Z,1008.50
2018-08-23T05:27:57.750Z,1008.50
2018-08-23T05:28:57.676Z,1008.49
2018-08-23T05:29:57.643Z,1008.50
2018-08-23T05:30:57.521Z,1008.48
2018-08-23T05:31:57.430Z,1008.48
2018-08-23T05:32:57.350Z,1008.51
2018-08-23T05:33:57.277Z,1008.49
2018-08-23T05:34:57.189Z,1008.53
2018-08-23T05:35:57.115Z,1008.56
2018-08-23T05:36:57.039Z,1008.50
2018-08-23T05:37:56.952Z,1008.51
2018-08-23T05:38:56.879Z,1008.52
2018-08-23T05:39:56.801Z,1008.50
2018-08-23T05:40:56.722Z,1008.52
2018-08-23T05:41:56.639Z,1008.48
2018-08-23T05:42:56.564Z,1008.44
2018-08-23T05:43:56.490Z,1008.45
2018-08-23T05:44:56.401Z,1008.48
2018-08-23T05:45:56.326Z,1008.46
2018-08-23T05:46:56.258Z,1008.47
2018-08-23T05:47:56.167Z,1008.46
2018-08-23T05:48:56.090Z,1008.44
2018-08-23T05:49:56.017Z,1008.41
2018-08-23T05:50:55.928Z,1008.41
2018-08-23T05:51:55.853Z,1008.45
2018-08-23T05:52:55.778Z,1008.37
2018-08-23T05:53:55.692Z,1008.40
2018-08-23T05:54:55.616Z,1008.43
2018-08-23T05:55:55.541Z,1008.46
2018-08-23T05:56:55.467Z,1008.41
2018-08-23T05:57:55.378Z,1008.43
2018-08-23T05:58:55.317Z,1008.39
2018-08-23T05:59:55.229Z,1008.40
2018-08-23T06:00:55.141Z,1008.43
2018-08-23T06:01:55.067Z,1008.41
2018-08-23T06:02:54.995Z,1008.40
2018-08-23T06:03:54.918Z,1008.41
2018-08-23T06:04:54.829Z,1008.39
2018-08-23T06:05:54.754Z,1008.35
2018-08-23T06:06:54.679Z,1008.35
2018-08-23T06:07:54.592Z,1008.33
2018-08-23T06:08:54.517Z,1008.32
2018-08-23T06:09:54.442Z,1008.33
2018-08-23T06:10:54.367Z,1008.29
2018-08-23T06:11:54.280Z,1008.30
2018-08-23T06:12:54.205Z,1008.30
2018-08-23T06:13:54.130Z,1008.28
2018-08-23T06:14:54.069Z,1008.27
2018-08-23T06:15:53.968Z,1008.26
2018-08-23T06:16:53.897Z,1008.28
2018-08-23T06:17:53.819Z,1008.26
2018-08-23T06:18:53.736Z,1008.23
2018-08-23T06:19:53.698Z,1008.26
2018-08-23T06:20:53.580Z,1008.25
2018-08-23T06:21:53.505Z,1008.27
2018-08-23T06:22:53.420Z,1008.23
2018-08-23T06:23:53.344Z,1008.17
2018-08-23T06:24:53.271Z,1008.19
2018-08-23T06:25:53.195Z,1008.20
2018-08-23T06:26:53.111Z,1008.19
2018-08-23T06:27:53.032Z,1008.19
2018-08-23T06:28:52.958Z,1008.18
2018-08-23T06:29:52.895Z,1008.21
2018-08-23T06:30:52.807Z,1008.20
2018-08-23T06:31:52.720Z,1008.16
2018-08-23T06:32:52.702Z,1008.15
2018-08-23T06:33:52.582Z,1008.19
2018-08-23T06:34:52.496Z,1008.20
2018-08-23T06:35:52.407Z,1008.19
2018-08-23T06:36:52.332Z,1008.23
2018-08-23T06:37:52.257Z,1008.21
2018-08-23T06:38:52.319Z,1008.21
2018-08-23T06:39:52.099Z,1008.20
2018-08-23T06:40:52.021Z,1008.19
2018-08-23T06:41:51.946Z,1008.18
2018-08-23T06:42:51.871Z,1008.18
2018-08-23T06:43:51.796Z,1008.17
2018-08-23T06:44:51.709Z,1008.17
2018-08-23T06:45:51.634Z,1008.16
2018-08-23T06:46:51.558Z,1008.15
2018-08-23T06:47:51.496Z,1008.15
2018-08-23T06:48:51.414Z,1008.21
2018-08-23T06:49:51.323Z,1008.19
2018-08-23T06:50:51.247Z,1008.22
2018-08-23T06:51:51.173Z,1008.19
2018-08-23T06:52:51.097Z,1008.17
2018-08-23T06:53:51.023Z,1008.19
2018-08-23T06:54:50.947Z,1008.17
2018-08-23T06:55:50.862Z,1008.17
2018-08-23T06:56:50.785Z,1008.14
2018-08-23T06:57:50.709Z,1008.18
2018-08-23T06:58:50.679Z,1008.19
2018-08-23T06:59:50.560Z,1008.18
2018-08-23T07:00:50.485Z,1008.19
2018-08-23T07:01:50.400Z,1008.16
2018-08-23T07:02:50.325Z,1008.14
2018-08-23T07:03:50.248Z,1008.16
2018-08-23T07:04:50.175Z,1008.18
2018-08-23T07:05:50.105Z,1008.17
2018-08-23T07:06:50.083Z,1008.18
2018-08-23T07:07:49.942Z,1008.14
2018-08-23T07:08:49.865Z,1008.16
2018-08-23T07:09:49.786Z,1008.14
2018-08-23T07:10:49.711Z,1008.11
2018-08-23T07:11:49.777Z,1008.09
2018-08-23T07:12:49.581Z,1008.10
2018-08-23T07:13:49.487Z,1008.05
2018-08-23T07:14:49.411Z,1008.06
2018-08-23T07:15:49.338Z,1008.06
2018-08-23T07:16:49.262Z,1008.06
2018-08-23T07:17:49.258Z,1008.09
2018-08-23T07:18:49.101Z,1008.08
2018-08-23T07:19:49.026Z,1008.07
2018-08-23T07:20:48.950Z,1008.04
2018-08-23T07:21:48.877Z,1008.01
2018-08-23T07:22:48.803Z,1008.05
2018-08-23T07:23:48.725Z,1008.06
2018-08-23T07:24:48.651Z,1008.08
2018-08-23T07:25:48.578Z,1008.07
2018-08-23T07:26:48.536Z,1008.08
2018-08-23T07:27:48.426Z,1008.09
2018-08-23T07:28:48.358Z,1008.11
2018-08-23T07:29:48.351Z,1008.11
2018-08-23T07:30:48.202Z,1008.13
2018-08-23T07:31:48.127Z,1008.13
2018-08-23T07:32:48.053Z,1008.15
2018-08-23T07:33:47.998Z,1008.15
2018-08-23T07:34:47.903Z,1008.13
2018-08-23T07:35:47.832Z,1008.13
2018-08-23T07:36:47.753Z,1008.16
2018-08-23T07:37:47.685Z,1008.18
2018-08-23T07:38:47.602Z,1008.23
2018-08-23T07:39:47.544Z,1008.19
2018-08-23T07:40:47.452Z,1008.22
2018-08-23T07:41:47.382Z,1008.26
2018-08-23T07:42:47.303Z,1008.27
2018-08-23T07:43:47.253Z,1008.23
2018-08-23T07:44:47.165Z,1008.23
2018-08-23T07:45:47.090Z,1008.24
2018-08-23T07:46:47.015Z,1008.26
2018-08-23T07:47:46.954Z,1008.25
2018-08-23T07:48:46.879Z,1008.21
2018-08-23T07:49:46.821Z,1008.25
2018-08-23T07:50:46.730Z,1008.26
2018-08-23T07:51:46.654Z,1008.21
2018-08-23T07:52:46.647Z,1008.23
2018-08-23T07:53:46.515Z,1008.19
2018-08-23T07:54:46.441Z,1008.22
2018-08-23T07:55:46.403Z,1008.25
2018-08-23T07:56:46.304Z,1008.24
2018-08-23T07:57:46.242Z,1008.24
2018-08-23T07:58:46.166Z,1008.23
2018-08-23T07:59:46.098Z,1008.21
2018-08-23T08:00:46.030Z,1008.27
2018-08-23T08:01:45.955Z,1008.25
2018-08-23T08:02:45.892Z,1008.19
2018-08-23T08:03:45.817Z,1008.20
2018-08-23T08:04:45.742Z,1008.17
2018-08-23T08:05:45.681Z,1008.19
2018-08-23T08:06:45.606Z,1008.18
2018-08-23T08:07:45.546Z,1008.17
2018-08-23T08:08:45.467Z,1008.19
2018-08-23T08:09:45.406Z,1008.19
2018-08-23T08:10:45.333Z,1008.18
2018-08-23T08:11:45.268Z,1008.18
2018-08-23T08:12:45.196Z,1008.15
2018-08-23T08:13:45.135Z,1008.17
2018-08-23T08:14:45.128Z,1008.19
2018-08-23T08:15:44.994Z,1008.21
2018-08-23T08:16:44.974Z,1008.18
2018-08-23T08:17:44.858Z,1008.20
2018-08-23T08:18:44.793Z,1008.19
2018-08-23T08:19:44.718Z,1008.20
2018-08-23T08:20:44.698Z,1008.19
2018-08-23T08:21:44.648Z,1008.20
2018-08-23T08:22:44.519Z,1008.18
2018-08-23T08:23:44.458Z,1008.23
2018-08-23T08:24:44.382Z,1008.24
2018-08-23T08:25:44.319Z,1008.25
2018-08-23T08:26:44.257Z,1008.23
2018-08-23T08:27:44.183Z,1008.20
2018-08-23T08:28:44.121Z,1008.23
2018-08-23T08:29:44.057Z,1008.26
2018-08-23T08:30:43.983Z,1008.20
2018-08-23T08:31:43.921Z,1008.25
2018-08-23T08:32:43.866Z,1008.24
2018-08-23T08:33:43.785Z,1008.25
2018-08-23T08:34:43.721Z,1008.22
2018-08-23T08:35:43.658Z,1008.20
2018-08-23T08:36:43.584Z,1008.18
2018-08-23T08:37:43.521Z,1008.22
2018-08-23T08:38:43.460Z,1008.21
2018-08-23T08:39:43.385Z,1008.16
2018-08-23T08:40:43.321Z,1008.16
2018-08-23T08:41:43.260Z,1008.15
2018-08-23T08:42:43.196Z,1008.12
2018-08-23T08:43:43.121Z,1008.13
2018-08-23T08:44:43.061Z,1008.11
2018-08-23T08:45:42.997Z,1008.11
2018-08-23T08:46:42.923Z,1008.12
2018-08-23T08:47:42.864Z,1008.10
2018-08-23T08:48:42.800Z,1008.10
2018-08-23T08:49:42.735Z,1008.04
2018-08-23T08:50:42.661Z,1008.10
2018-08-23T08:51:42.597Z,1008.12
2018-08-23T08:52:42.536Z,1008.11
2018-08-23T08:53:42.486Z,1008.05
2018-08-23T08:54:42.398Z,1008.03
2018-08-23T08:55:42.336Z,1008.05
2018-08-23T08:56:42.295Z,1008.00
2018-08-23T08:57:42.247Z,1008.05
2018-08-23T08:58:42.149Z,1007.98
2018-08-23T08:59:42.074Z,1007.96
2018-08-23T09:00:42.013Z,1007.98
2018-08-23T09:01:41.949Z,1007.92
2018-08-23T09:02:41.886Z,1007.96
2018-08-23T09:03:41.811Z,1007.95
2018-08-23T09:04:41.749Z,1007.94
2018-08-23T09:05:41.688Z,1007.94
2018-08-23T09:06:41.613Z,1007.90
2018-08-23T09:07:41.549Z,1007.89
2018-08-23T09:08:41.488Z,1007.92
2018-08-23T09:09:41.450Z,1007.83
2018-08-23T09:10:41.351Z,1007.88
2018-08-23T09:11:41.288Z,1007.87
2018-08-23T09:12:41.225Z,1007.87
2018-08-23T09:13:41.156Z,1007.81
2018-08-23T09:14:41.088Z,1007.83
2018-08-23T09:15:41.026Z,1007.84
2018-08-23T09:16:40.963Z,1007.77
2018-08-23T09:17:40.889Z,1007.76
2018-08-23T09:18:40.897Z,1007.76
2018-08-23T09:19:40.766Z,1007.77
2018-08-23T09:20:40.713Z,1007.71
2018-08-23T09:21:40.639Z,1007.66
2018-08-23T09:22:40.564Z,1007.71
2018-08-23T09:23:40.501Z,1007.73
2018-08-23T09:24:40.427Z,1007.73
2018-08-23T09:25:40.365Z,1007.70
2018-08-23T09:26:40.302Z,1007.68
2018-08-23T09:27:40.228Z,1007.68
2018-08-23T09:28:40.166Z,1007.66
2018-08-23T09:29:40.102Z,1007.70
2018-08-23T09:30:40.028Z,1007.69
2018-08-23T09:31:39.966Z,1007.62
2018-08-23T09:32:39.902Z,1007.63
2018-08-23T09:33:39.827Z,1007.61
2018-08-23T09:34:39.769Z,1007.57
2018-08-23T09:35:39.702Z,1007.57
2018-08-23T09:36:39.628Z,1007.53
2018-08-23T09:37:39.568Z,1007.60
2018-08-23T09:38:39.504Z,1007.58
2018-08-23T09:39:39.428Z,1007.46
2018-08-23T09:40:39.366Z,1007.40
2018-08-23T09:41:39.332Z,1007.45
2018-08-23T09:42:39.234Z,1007.43
2018-08-23T09:43:39.169Z,1007.39
2018-08-23T09:44:39.103Z,1007.36
2018-08-23T09:45:39.029Z,1007.37
2018-08-23T09:46:38.967Z,1007.37
2018-08-23T09:47:38.892Z,1007.29
2018-08-23T09:48:38.829Z,1007.36
2018-08-23T09:49:38.767Z,1007.29
2018-08-23T09:50:38.734Z,1007.28
2018-08-23T09:51:38.628Z,1007.22
2018-08-23T09:52:38.567Z,1007.23
2018-08-23T09:53:38.496Z,1007.22
2018-08-23T09:54:38.429Z,1007.26
2018-08-23T09:55:38.354Z,1007.18
2018-08-23T09:56:38.321Z,1007.23
2018-08-23T09:57:38.218Z,1007.18
2018-08-23T09:58:38.155Z,1007.13
2018-08-23T09:59:38.081Z,1007.10
2018-08-23T10:00:38.020Z,1007.07
2018-08-23T10:01:37.955Z,1007.03
2018-08-23T10:02:37.883Z,1006.96
2018-08-23T10:03:37.826Z,1006.98
2018-08-23T10:04:37.757Z,1007.00
2018-08-23T10:05:37.682Z,1007.01
2018-08-23T10:06:37.619Z,1006.99
2018-08-23T10:07:37.546Z,1006.94
2018-08-23T10:08:37.469Z,1006.92
2018-08-23T10:09:37.407Z,1006.91
2018-08-23T10:10:37.331Z,1006.88
2018-08-23T10:11:37.286Z,1006.86
2018-08-23T10:12:37.197Z,1006.87
2018-08-23T10:13:37.131Z,1006.90
2018-08-23T10:14:37.056Z,1006.85
2018-08-23T10:15:36.996Z,1006.84
2018-08-23T10:16:36.920Z,1006.86
2018-08-23T10:17:36.857Z,1006.81
2018-08-23T10:18:36.782Z,1006.79
2018-08-23T10:19:36.720Z,1006.80
2018-08-23T10:20:36.645Z,1006.79
2018-08-23T10:21:36.582Z,1006.80
2018-08-23T10:22:36.508Z,1006.78
2018-08-23T10:23:36.445Z,1006.74
2018-08-23T10:24:36.371Z,1006.76
2018-08-23T10:25:36.310Z,1006.74
2018-08-23T10:26:36.252Z,1006.72
2018-08-23T10:27:36.160Z,1006.73
2018-08-23T10:28:36.096Z,1006.68
2018-08-23T10:29:36.022Z,1006.68
2018-08-23T10:30:35.957Z,1006.66
2018-08-23T10:31:35.883Z,1006.69
2018-08-23T10:32:35.821Z,1006.68
2018-08-23T10:33:35.747Z,1006.73
2018-08-23T10:34:35.683Z,1006.65
2018-08-23T10:35:35.608Z,1006.64
2018-08-23T10:36:35.547Z,1006.64
2018-08-23T10:37:35.472Z,1006.70
2018-08-23T10:38:35.423Z,1006.75
2018-08-23T10:39:35.334Z,1006.89
2018-08-23T10:40:35.273Z,1006.87
2018-08-23T10:41:35.197Z,1006.77
2018-08-23T10:42:35.134Z,1006.65
2018-08-23T10:43:35.059Z,1006.61
2018-08-23T10:44:35.058Z,1006.51
2018-08-23T10:45:34.933Z,1006.55
2018-08-23T10:46:34.859Z,1006.57
2018-08-23T10:47:34.788Z,1006.52
2018-08-23T10:48:34.723Z,1006.49
2018-08-23T10:49:34.660Z,1006.57
2018-08-23T10:50:34.593Z,1006.50
2018-08-23T10:51:34.525Z,1006.45
2018-08-23T10:52:34.454Z,1006.47
2018-08-23T10:53:34.385Z,1006.47
2018-08-23T10:54:34.323Z,1006.52
2018-08-23T10:55:34.248Z,1006.47
2018-08-23T10:56:34.185Z,1006.46
2018-08-23T10:57:34.123Z,1006.48
2018-08-23T10:58:34.052Z,1006.53
2018-08-23T10:59:33.986Z,1006.52
2018-08-23T11:00:33.924Z,1006.43
2018-08-23T11:01:33.849Z,1006.40
2018-08-23T11:02:33.786Z,1006.37
2018-08-23T11:03:33.716Z,1006.39
2018-08-23T11:04:33.636Z,1006.36
2018-08-23T11:05:33.574Z,1006.36
2018-08-23T11:06:33.527Z,1006.34
2018-08-23T11:07:33.436Z,1006.42
2018-08-23T11:08:33.378Z,1006.48
2018-08-23T11:09:33.327Z,1006.50
2018-08-23T11:10:33.237Z,1006.43
2018-08-23T11:11:33.175Z,1006.42
2018-08-23T11:12:33.124Z,1006.38
2018-08-23T11:13:33.037Z,1006.36
2018-08-23T11:14:32.979Z,1006.40
2018-08-23T11:15:32.913Z,1006.36
2018-08-23T11:16:32.863Z,1006.34
2018-08-23T11:17:32.777Z,1006.32
2018-08-23T11:18:32.712Z,1006.28
2018-08-23T11:19:32.653Z,1006.36
2018-08-23T11:20:32.588Z,1006.30
2018-08-23T11:21:32.515Z,1006.28
2018-08-23T11:22:32.453Z,1006.33
2018-08-23T11:23:32.391Z,1006.30
2018-08-23T11:24:32.327Z,1006.28
2018-08-23T11:25:32.264Z,1006.26
2018-08-23T11:26:32.204Z,1006.25
2018-08-23T11:27:32.127Z,1006.22
2018-08-23T11:28:32.076Z,1006.18
2018-08-23T11:29:32.063Z,1006.15
2018-08-23T11:30:31.938Z,1006.18
2018-08-23T11:31:31.877Z,1006.16
2018-08-23T11:32:31.814Z,1006.15
2018-08-23T11:33:31.768Z,1006.20
2018-08-23T11:34:31.690Z,1006.11
2018-08-23T11:35:31.628Z,1006.07
2018-08-23T11:36:31.565Z,1006.13
2018-08-23T11:37:31.492Z,1006.09
2018-08-23T11:38:31.428Z,1006.13
2018-08-23T11:39:31.366Z,1006.10
2018-08-23T11:40:31.304Z,1006.13
2018-08-23T11:41:31.240Z,1006.07
2018-08-23T11:42:31.183Z,1006.00
2018-08-23T11:43:31.119Z,1005.93
2018-08-23T11:44:31.054Z,1005.92
2018-08-23T11:45:30.994Z,1005.91
2018-08-23T11:46:30.929Z,1005.93
2018-08-23T11:47:30.868Z,1005.77
2018-08-23T11:48:30.805Z,1005.87
2018-08-23T11:49:30.744Z,1005.77
2018-08-23T11:50:30.688Z,1005.69
2018-08-23T11:51:30.619Z,1005.72
2018-08-23T11:52:30.543Z,1005.67
2018-08-23T11:53:30.666Z,1005.67
2018-08-23T11:54:30.418Z,1005.69
2018-08-23T11:55:30.356Z,1005.77
2018-08-23T11:56:30.292Z,1005.79
2018-08-23T11:57:30.231Z,1005.71
2018-08-23T11:58:30.184Z,1005.81
2018-08-23T11:59:30.109Z,1005.82
2018-08-23T12:00:30.031Z,1005.77
2018-08-23T12:01:29.968Z,1005.76
2018-08-23T12:02:29.907Z,1005.80
2018-08-23T12:03:29.843Z,1005.75
2018-08-23T12:04:29.812Z,1005.71
2018-08-23T12:05:29.718Z,1005.61